sensor_id;sensor_type;location;lat;lon;timestamp;P1;durP1;ratioP1;P2;durP2;ratioP2
47161;SDS011;32921;53.256;8.198;2023-04-15T00:01:29;17.38;;;9.40;;
47161;SDS011;32921;53.256;8.198;2023-04-15T00:03:57;14.15;;;8.98;;
47161;SDS011;32921;53.256;8.198;2023-04-15T00:06:23;13.63;;;9.23;;
47161;SDS011;32921;53.256;8.198;2023-04-15T00:08:48;14.70;;;8.70;;
47161;SDS011;32921;53.256;8.198;2023-04-15T00:11:15;16.08;;;9.73;;
47161;SDS011;32921;53.256;8.198;2023-04-15T00:13:41;13.60;;;8.98;;
47161;SDS011;32921;53.256;8.198;2023-04-15T00:16:08;15.52;;;9.27;;
47161;SDS011;32921;53.256;8.198;2023-04-15T00:18:34;14.75;;;9.07;;
47161;SDS011;32921;53.256;8.198;2023-04-15T00:21:00;17.25;;;9.13;;
47161;SDS011;32921;53.256;8.198;2023-04-15T00:23:26;17.95;;;9.82;;
47161;SDS011;32921;53.256;8.198;2023-04-15T00:25:52;16.52;;;9.60;;
47161;SDS011;32921;53.256;8.198;2023-04-15T00:28:18;14.52;;;9.35;;
47161;SDS011;32921;53.256;8.198;2023-04-15T00:30:44;16.08;;;9.80;;
47161;SDS011;32921;53.256;8.198;2023-04-15T00:33:11;17.13;;;9.80;;
47161;SDS011;32921;53.256;8.198;2023-04-15T00:35:38;14.82;;;9.48;;
47161;SDS011;32921;53.256;8.198;2023-04-15T00:38:04;18.75;;;10.82;;
47161;SDS011;32921;53.256;8.198;2023-04-15T00:40:31;18.55;;;10.65;;
47161;SDS011;32921;53.256;8.198;2023-04-15T00:42:57;17.40;;;10.85;;
47161;SDS011;32921;53.256;8.198;2023-04-15T00:45:22;18.10;;;10.95;;
47161;SDS011;32921;53.256;8.198;2023-04-15T00:47:48;19.67;;;12.43;;
47161;SDS011;32921;53.256;8.198;2023-04-15T00:50:15;18.85;;;11.52;;
47161;SDS011;32921;53.256;8.198;2023-04-15T00:52:40;21.20;;;11.13;;
47161;SDS011;32921;53.256;8.198;2023-04-15T00:55:12;17.25;;;11.05;;
47161;SDS011;32921;53.256;8.198;2023-04-15T00:57:38;19.70;;;11.10;;
47161;SDS011;32921;53.256;8.198;2023-04-15T01:02:58;19.05;;;11.23;;
47161;SDS011;32921;53.256;8.198;2023-04-15T01:05:24;20.83;;;11.75;;
47161;SDS011;32921;53.256;8.198;2023-04-15T01:07:50;22.45;;;12.77;;
47161;SDS011;32921;53.256;8.198;2023-04-15T01:10:17;20.95;;;12.38;;
47161;SDS011;32921;53.256;8.198;2023-04-15T01:12:42;21.35;;;13.10;;
47161;SDS011;32921;53.256;8.198;2023-04-15T01:15:08;24.27;;;13.75;;
47161;SDS011;32921;53.256;8.198;2023-04-15T01:17:35;27.02;;;15.43;;
47161;SDS011;32921;53.256;8.198;2023-04-15T01:20:01;21.95;;;13.55;;
47161;SDS011;32921;53.256;8.198;2023-04-15T01:22:27;24.75;;;14.27;;
47161;SDS011;32921;53.256;8.198;2023-04-15T01:25:05;25.48;;;14.20;;
47161;SDS011;32921;53.256;8.198;2023-04-15T01:27:42;23.02;;;14.40;;
47161;SDS011;32921;53.256;8.198;2023-04-15T01:30:08;24.08;;;14.20;;
47161;SDS011;32921;53.256;8.198;2023-04-15T01:32:34;26.10;;;15.20;;
47161;SDS011;32921;53.256;8.198;2023-04-15T01:35:00;28.45;;;15.52;;
47161;SDS011;32921;53.256;8.198;2023-04-15T01:37:26;25.08;;;15.07;;
47161;SDS011;32921;53.256;8.198;2023-04-15T01:39:52;24.77;;;15.43;;
47161;SDS011;32921;53.256;8.198;2023-04-15T01:42:18;24.67;;;15.25;;
47161;SDS011;32921;53.256;8.198;2023-04-15T01:44:45;25.52;;;15.23;;
47161;SDS011;32921;53.256;8.198;2023-04-15T01:47:11;26.95;;;15.00;;
47161;SDS011;32921;53.256;8.198;2023-04-15T01:49:37;25.70;;;15.45;;
47161;SDS011;32921;53.256;8.198;2023-04-15T01:52:02;23.83;;;15.15;;
47161;SDS011;32921;53.256;8.198;2023-04-15T01:54:28;29.42;;;16.30;;
47161;SDS011;32921;53.256;8.198;2023-04-15T01:56:53;28.80;;;16.33;;
47161;SDS011;32921;53.256;8.198;2023-04-15T01:59:20;29.23;;;16.48;;
47161;SDS011;32921;53.256;8.198;2023-04-15T02:01:46;28.10;;;16.13;;
47161;SDS011;32921;53.256;8.198;2023-04-15T02:04:12;28.13;;;17.42;;
47161;SDS011;32921;53.256;8.198;2023-04-15T02:06:41;27.05;;;16.42;;
47161;SDS011;32921;53.256;8.198;2023-04-15T02:09:07;30.92;;;15.85;;
47161;SDS011;32921;53.256;8.198;2023-04-15T02:11:33;29.70;;;16.05;;
47161;SDS011;32921;53.256;8.198;2023-04-15T02:14:01;31.73;;;16.73;;
47161;SDS011;32921;53.256;8.198;2023-04-15T02:16:26;28.92;;;15.93;;
47161;SDS011;32921;53.256;8.198;2023-04-15T02:18:52;28.83;;;16.60;;
47161;SDS011;32921;53.256;8.198;2023-04-15T02:21:18;26.85;;;14.95;;
47161;SDS011;32921;53.256;8.198;2023-04-15T02:23:43;25.80;;;14.88;;
47161;SDS011;32921;53.256;8.198;2023-04-15T02:26:10;26.00;;;14.73;;
47161;SDS011;32921;53.256;8.198;2023-04-15T02:28:43;24.00;;;14.35;;
47161;SDS011;32921;53.256;8.198;2023-04-15T02:31:09;25.13;;;13.80;;
47161;SDS011;32921;53.256;8.198;2023-04-15T02:33:34;23.48;;;14.35;;
47161;SDS011;32921;53.256;8.198;2023-04-15T02:36:01;24.58;;;14.30;;
47161;SDS011;32921;53.256;8.198;2023-04-15T02:38:27;24.38;;;14.23;;
47161;SDS011;32921;53.256;8.198;2023-04-15T02:40:53;25.55;;;14.45;;
47161;SDS011;32921;53.256;8.198;2023-04-15T02:43:18;25.00;;;14.25;;
47161;SDS011;32921;53.256;8.198;2023-04-15T02:45:44;27.25;;;15.50;;
47161;SDS011;32921;53.256;8.198;2023-04-15T02:48:11;23.70;;;13.93;;
47161;SDS011;32921;53.256;8.198;2023-04-15T02:50:36;25.75;;;14.52;;
47161;SDS011;32921;53.256;8.198;2023-04-15T02:53:05;25.48;;;14.00;;
47161;SDS011;32921;53.256;8.198;2023-04-15T02:55:31;26.85;;;13.80;;
47161;SDS011;32921;53.256;8.198;2023-04-15T02:57:57;27.33;;;14.70;;
47161;SDS011;32921;53.256;8.198;2023-04-15T03:00:24;26.83;;;14.85;;
47161;SDS011;32921;53.256;8.198;2023-04-15T03:02:50;28.65;;;14.50;;
47161;SDS011;32921;53.256;8.198;2023-04-15T03:05:20;27.27;;;15.00;;
47161;SDS011;32921;53.256;8.198;2023-04-15T03:07:47;27.92;;;14.65;;
47161;SDS011;32921;53.256;8.198;2023-04-15T03:10:13;28.60;;;15.48;;
47161;SDS011;32921;53.256;8.198;2023-04-15T03:12:39;29.23;;;15.77;;
47161;SDS011;32921;53.256;8.198;2023-04-15T03:15:05;33.10;;;15.45;;
47161;SDS011;32921;53.256;8.198;2023-04-15T03:17:32;29.10;;;15.88;;
47161;SDS011;32921;53.256;8.198;2023-04-15T03:19:57;30.48;;;16.15;;
47161;SDS011;32921;53.256;8.198;2023-04-15T03:22:23;29.63;;;15.63;;
47161;SDS011;32921;53.256;8.198;2023-04-15T03:24:50;31.70;;;16.58;;
47161;SDS011;32921;53.256;8.198;2023-04-15T03:27:16;29.58;;;15.93;;
47161;SDS011;32921;53.256;8.198;2023-04-15T03:29:41;31.58;;;16.23;;
47161;SDS011;32921;53.256;8.198;2023-04-15T03:32:07;29.55;;;15.98;;
47161;SDS011;32921;53.256;8.198;2023-04-15T03:34:32;31.17;;;15.98;;
47161;SDS011;32921;53.256;8.198;2023-04-15T03:36:58;36.67;;;17.75;;
47161;SDS011;32921;53.256;8.198;2023-04-15T03:39:23;36.70;;;17.02;;
47161;SDS011;32921;53.256;8.198;2023-04-15T03:41:49;35.13;;;16.88;;
47161;SDS011;32921;53.256;8.198;2023-04-15T03:44:14;36.47;;;17.38;;
47161;SDS011;32921;53.256;8.198;2023-04-15T03:46:40;34.60;;;17.27;;
47161;SDS011;32921;53.256;8.198;2023-04-15T03:49:06;39.50;;;18.58;;
47161;SDS011;32921;53.256;8.198;2023-04-15T03:51:32;38.03;;;19.23;;
47161;SDS011;32921;53.256;8.198;2023-04-15T03:53:57;34.83;;;17.88;;
47161;SDS011;32921;53.256;8.198;2023-04-15T03:56:23;33.28;;;16.92;;
47161;SDS011;32921;53.256;8.198;2023-04-15T03:58:49;32.38;;;17.60;;
47161;SDS011;32921;53.256;8.198;2023-04-15T04:01:14;32.58;;;16.73;;
47161;SDS011;32921;53.256;8.198;2023-04-15T04:03:40;34.45;;;17.13;;
47161;SDS011;32921;53.256;8.198;2023-04-15T04:06:06;32.70;;;16.77;;
47161;SDS011;32921;53.256;8.198;2023-04-15T04:08:32;32.35;;;17.00;;
47161;SDS011;32921;53.256;8.198;2023-04-15T04:10:58;30.40;;;15.95;;
47161;SDS011;32921;53.256;8.198;2023-04-15T04:13:23;31.27;;;15.63;;
47161;SDS011;32921;53.256;8.198;2023-04-15T04:15:49;27.52;;;15.70;;
47161;SDS011;32921;53.256;8.198;2023-04-15T04:18:14;28.58;;;15.45;;
47161;SDS011;32921;53.256;8.198;2023-04-15T04:20:40;27.67;;;15.10;;
47161;SDS011;32921;53.256;8.198;2023-04-15T04:23:06;27.80;;;14.45;;
47161;SDS011;32921;53.256;8.198;2023-04-15T04:25:31;28.45;;;15.77;;
47161;SDS011;32921;53.256;8.198;2023-04-15T04:27:57;25.40;;;14.48;;
47161;SDS011;32921;53.256;8.198;2023-04-15T04:30:23;24.00;;;13.80;;
47161;SDS011;32921;53.256;8.198;2023-04-15T04:32:49;24.40;;;14.23;;
47161;SDS011;32921;53.256;8.198;2023-04-15T04:35:15;23.55;;;12.85;;
47161;SDS011;32921;53.256;8.198;2023-04-15T04:37:41;23.35;;;12.65;;
47161;SDS011;32921;53.256;8.198;2023-04-15T04:40:07;16.00;;;8.93;;
47161;SDS011;32921;53.256;8.198;2023-04-15T04:42:33;19.52;;;11.77;;
47161;SDS011;32921;53.256;8.198;2023-04-15T04:44:59;22.85;;;12.82;;
47161;SDS011;32921;53.256;8.198;2023-04-15T04:47:24;23.48;;;12.50;;
47161;SDS011;32921;53.256;8.198;2023-04-15T04:49:50;23.73;;;13.52;;
47161;SDS011;32921;53.256;8.198;2023-04-15T04:52:15;24.90;;;13.65;;
47161;SDS011;32921;53.256;8.198;2023-04-15T04:54:41;24.65;;;13.93;;
47161;SDS011;32921;53.256;8.198;2023-04-15T04:57:06;23.17;;;14.13;;
47161;SDS011;32921;53.256;8.198;2023-04-15T04:59:32;24.95;;;13.68;;
47161;SDS011;32921;53.256;8.198;2023-04-15T05:01:58;24.73;;;13.23;;
47161;SDS011;32921;53.256;8.198;2023-04-15T05:04:23;22.77;;;13.52;;
47161;SDS011;32921;53.256;8.198;2023-04-15T05:06:49;22.42;;;11.68;;
47161;SDS011;32921;53.256;8.198;2023-04-15T05:09:14;21.15;;;12.68;;
47161;SDS011;32921;53.256;8.198;2023-04-15T05:11:40;19.92;;;9.93;;
47161;SDS011;32921;53.256;8.198;2023-04-15T05:14:06;25.92;;;11.52;;
47161;SDS011;32921;53.256;8.198;2023-04-15T05:16:31;19.35;;;9.98;;
47161;SDS011;32921;53.256;8.198;2023-04-15T05:18:57;17.30;;;10.68;;
47161;SDS011;32921;53.256;8.198;2023-04-15T05:21:22;14.13;;;7.63;;
47161;SDS011;32921;53.256;8.198;2023-04-15T05:23:48;19.50;;;11.43;;
47161;SDS011;32921;53.256;8.198;2023-04-15T05:26:13;22.27;;;10.82;;
47161;SDS011;32921;53.256;8.198;2023-04-15T05:28:39;21.10;;;11.52;;
47161;SDS011;32921;53.256;8.198;2023-04-15T05:31:05;17.88;;;10.30;;
47161;SDS011;32921;53.256;8.198;2023-04-15T05:33:31;21.23;;;11.60;;
47161;SDS011;32921;53.256;8.198;2023-04-15T05:35:56;20.50;;;12.15;;
47161;SDS011;32921;53.256;8.198;2023-04-15T05:38:22;20.05;;;12.02;;
47161;SDS011;32921;53.256;8.198;2023-04-15T05:40:48;21.38;;;12.45;;
47161;SDS011;32921;53.256;8.198;2023-04-15T05:43:13;19.98;;;12.15;;
47161;SDS011;32921;53.256;8.198;2023-04-15T05:45:39;19.92;;;12.38;;
47161;SDS011;32921;53.256;8.198;2023-04-15T05:48:04;20.48;;;12.25;;
47161;SDS011;32921;53.256;8.198;2023-04-15T05:50:30;21.42;;;12.40;;
47161;SDS011;32921;53.256;8.198;2023-04-15T05:52:56;21.45;;;12.30;;
47161;SDS011;32921;53.256;8.198;2023-04-15T05:55:21;20.58;;;11.93;;
47161;SDS011;32921;53.256;8.198;2023-04-15T05:57:47;22.67;;;12.73;;
47161;SDS011;32921;53.256;8.198;2023-04-15T06:00:12;25.33;;;12.77;;
47161;SDS011;32921;53.256;8.198;2023-04-15T06:02:39;20.77;;;12.15;;
47161;SDS011;32921;53.256;8.198;2023-04-15T06:05:05;22.70;;;12.45;;
47161;SDS011;32921;53.256;8.198;2023-04-15T06:07:35;21.15;;;12.88;;
47161;SDS011;32921;53.256;8.198;2023-04-15T06:10:04;21.45;;;12.48;;
47161;SDS011;32921;53.256;8.198;2023-04-15T06:12:31;19.75;;;12.93;;
47161;SDS011;32921;53.256;8.198;2023-04-15T06:14:56;23.42;;;13.65;;
47161;SDS011;32921;53.256;8.198;2023-04-15T06:17:22;23.20;;;12.57;;
47161;SDS011;32921;53.256;8.198;2023-04-15T06:19:48;24.90;;;13.48;;
47161;SDS011;32921;53.256;8.198;2023-04-15T06:22:15;16.35;;;10.10;;
47161;SDS011;32921;53.256;8.198;2023-04-15T06:24:41;21.25;;;12.95;;
47161;SDS011;32921;53.256;8.198;2023-04-15T06:27:06;24.67;;;13.95;;
47161;SDS011;32921;53.256;8.198;2023-04-15T06:29:32;21.00;;;12.27;;
47161;SDS011;32921;53.256;8.198;2023-04-15T06:31:57;20.40;;;10.65;;
47161;SDS011;32921;53.256;8.198;2023-04-15T06:34:23;20.95;;;11.93;;
47161;SDS011;32921;53.256;8.198;2023-04-15T06:36:49;21.30;;;11.18;;
47161;SDS011;32921;53.256;8.198;2023-04-15T06:39:14;17.45;;;9.45;;
47161;SDS011;32921;53.256;8.198;2023-04-15T06:41:40;20.83;;;11.13;;
47161;SDS011;32921;53.256;8.198;2023-04-15T06:44:06;22.23;;;10.18;;
47161;SDS011;32921;53.256;8.198;2023-04-15T06:46:31;17.17;;;8.82;;
47161;SDS011;32921;53.256;8.198;2023-04-15T06:48:57;18.38;;;9.90;;
47161;SDS011;32921;53.256;8.198;2023-04-15T06:51:22;19.10;;;9.40;;
47161;SDS011;32921;53.256;8.198;2023-04-15T06:53:48;21.38;;;9.82;;
47161;SDS011;32921;53.256;8.198;2023-04-15T06:56:14;18.63;;;10.05;;
47161;SDS011;32921;53.256;8.198;2023-04-15T06:58:39;19.55;;;9.90;;
47161;SDS011;32921;53.256;8.198;2023-04-15T07:01:05;17.35;;;9.65;;
47161;SDS011;32921;53.256;8.198;2023-04-15T07:03:30;20.48;;;9.30;;
47161;SDS011;32921;53.256;8.198;2023-04-15T07:05:56;17.33;;;8.10;;
47161;SDS011;32921;53.256;8.198;2023-04-15T07:08:22;16.15;;;9.25;;
47161;SDS011;32921;53.256;8.198;2023-04-15T07:10:48;16.55;;;7.30;;
47161;SDS011;32921;53.256;8.198;2023-04-15T07:13:14;17.88;;;7.97;;
47161;SDS011;32921;53.256;8.198;2023-04-15T07:15:39;15.98;;;7.10;;
47161;SDS011;32921;53.256;8.198;2023-04-15T07:18:05;13.63;;;7.78;;
47161;SDS011;32921;53.256;8.198;2023-04-15T07:20:30;14.82;;;8.38;;
47161;SDS011;32921;53.256;8.198;2023-04-15T07:22:56;18.98;;;8.77;;
47161;SDS011;32921;53.256;8.198;2023-04-15T07:25:22;18.40;;;9.27;;
47161;SDS011;32921;53.256;8.198;2023-04-15T07:27:47;16.15;;;8.30;;
47161;SDS011;32921;53.256;8.198;2023-04-15T07:30:13;18.77;;;9.32;;
47161;SDS011;32921;53.256;8.198;2023-04-15T07:32:39;18.45;;;8.55;;
47161;SDS011;32921;53.256;8.198;2023-04-15T07:35:05;14.43;;;8.20;;
47161;SDS011;32921;53.256;8.198;2023-04-15T07:37:30;25.75;;;9.82;;
47161;SDS011;32921;53.256;8.198;2023-04-15T07:39:56;17.75;;;7.05;;
47161;SDS011;32921;53.256;8.198;2023-04-15T07:42:22;17.95;;;8.95;;
47161;SDS011;32921;53.256;8.198;2023-04-15T07:44:47;19.48;;;8.65;;
47161;SDS011;32921;53.256;8.198;2023-04-15T07:47:13;16.45;;;8.27;;
47161;SDS011;32921;53.256;8.198;2023-04-15T07:49:40;15.50;;;8.23;;
47161;SDS011;32921;53.256;8.198;2023-04-15T07:52:05;14.90;;;8.60;;
47161;SDS011;32921;53.256;8.198;2023-04-15T07:54:31;16.88;;;7.63;;
47161;SDS011;32921;53.256;8.198;2023-04-15T07:56:57;17.75;;;8.30;;
47161;SDS011;32921;53.256;8.198;2023-04-15T07:59:22;12.00;;;7.05;;
47161;SDS011;32921;53.256;8.198;2023-04-15T08:01:48;13.00;;;6.38;;
47161;SDS011;32921;53.256;8.198;2023-04-15T08:04:14;14.60;;;7.20;;
47161;SDS011;32921;53.256;8.198;2023-04-15T08:06:39;10.38;;;5.78;;
47161;SDS011;32921;53.256;8.198;2023-04-15T08:09:05;13.27;;;6.65;;
47161;SDS011;32921;53.256;8.198;2023-04-15T08:11:32;13.25;;;7.25;;
47161;SDS011;32921;53.256;8.198;2023-04-15T08:13:57;11.55;;;6.15;;
47161;SDS011;32921;53.256;8.198;2023-04-15T08:16:23;10.77;;;5.82;;
47161;SDS011;32921;53.256;8.198;2023-04-15T08:18:51;10.77;;;4.68;;
47161;SDS011;32921;53.256;8.198;2023-04-15T08:21:18;11.82;;;5.88;;
47161;SDS011;32921;53.256;8.198;2023-04-15T08:23:44;10.63;;;4.88;;
47161;SDS011;32921;53.256;8.198;2023-04-15T08:26:11;11.45;;;5.75;;
47161;SDS011;32921;53.256;8.198;2023-04-15T08:28:37;10.93;;;4.45;;
47161;SDS011;32921;53.256;8.198;2023-04-15T08:31:04;13.82;;;5.22;;
47161;SDS011;32921;53.256;8.198;2023-04-15T08:33:30;8.32;;;4.38;;
47161;SDS011;32921;53.256;8.198;2023-04-15T08:35:55;9.80;;;4.50;;
47161;SDS011;32921;53.256;8.198;2023-04-15T08:38:21;11.60;;;5.05;;
47161;SDS011;32921;53.256;8.198;2023-04-15T08:40:47;12.20;;;4.80;;
47161;SDS011;32921;53.256;8.198;2023-04-15T08:43:20;8.85;;;4.82;;
47161;SDS011;32921;53.256;8.198;2023-04-15T08:45:52;9.30;;;4.38;;
47161;SDS011;32921;53.256;8.198;2023-04-15T08:48:18;9.82;;;3.83;;
47161;SDS011;32921;53.256;8.198;2023-04-15T08:50:44;8.25;;;4.18;;
47161;SDS011;32921;53.256;8.198;2023-04-15T08:53:11;9.90;;;4.35;;
47161;SDS011;32921;53.256;8.198;2023-04-15T08:55:38;10.85;;;4.40;;
47161;SDS011;32921;53.256;8.198;2023-04-15T08:58:08;9.73;;;4.25;;
47161;SDS011;32921;53.256;8.198;2023-04-15T09:00:35;9.60;;;5.05;;
47161;SDS011;32921;53.256;8.198;2023-04-15T09:03:02;11.20;;;5.28;;
47161;SDS011;32921;53.256;8.198;2023-04-15T09:05:30;9.75;;;4.90;;
47161;SDS011;32921;53.256;8.198;2023-04-15T09:07:57;10.73;;;5.00;;
47161;SDS011;32921;53.256;8.198;2023-04-15T09:10:23;8.60;;;4.60;;
47161;SDS011;32921;53.256;8.198;2023-04-15T09:12:48;9.55;;;5.03;;
47161;SDS011;32921;53.256;8.198;2023-04-15T09:15:14;10.98;;;3.55;;
47161;SDS011;32921;53.256;8.198;2023-04-15T09:17:43;8.63;;;3.80;;
47161;SDS011;32921;53.256;8.198;2023-04-15T09:20:10;8.48;;;4.00;;
47161;SDS011;32921;53.256;8.198;2023-04-15T09:22:37;8.45;;;4.55;;
47161;SDS011;32921;53.256;8.198;2023-04-15T09:25:07;10.50;;;4.82;;
47161;SDS011;32921;53.256;8.198;2023-04-15T09:27:51;9.48;;;4.90;;
47161;SDS011;32921;53.256;8.198;2023-04-15T09:30:18;9.40;;;5.00;;
47161;SDS011;32921;53.256;8.198;2023-04-15T09:32:48;9.43;;;4.05;;
47161;SDS011;32921;53.256;8.198;2023-04-15T09:35:15;10.15;;;4.68;;
47161;SDS011;32921;53.256;8.198;2023-04-15T09:37:40;9.27;;;4.32;;
47161;SDS011;32921;53.256;8.198;2023-04-15T09:40:06;11.43;;;4.28;;
47161;SDS011;32921;53.256;8.198;2023-04-15T09:42:34;6.88;;;3.03;;
47161;SDS011;32921;53.256;8.198;2023-04-15T09:45:09;6.55;;;2.95;;
47161;SDS011;32921;53.256;8.198;2023-04-15T09:47:36;8.73;;;4.47;;
47161;SDS011;32921;53.256;8.198;2023-04-15T09:50:02;11.30;;;4.60;;
47161;SDS011;32921;53.256;8.198;2023-04-15T09:52:28;8.55;;;3.55;;
47161;SDS011;32921;53.256;8.198;2023-04-15T09:54:54;9.32;;;4.38;;
47161;SDS011;32921;53.256;8.198;2023-04-15T09:57:21;6.55;;;3.22;;
47161;SDS011;32921;53.256;8.198;2023-04-15T09:59:47;8.05;;;3.72;;
47161;SDS011;32921;53.256;8.198;2023-04-15T10:02:13;7.88;;;3.10;;
47161;SDS011;32921;53.256;8.198;2023-04-15T10:04:40;7.85;;;2.97;;
47161;SDS011;32921;53.256;8.198;2023-04-15T10:07:06;6.32;;;2.97;;
47161;SDS011;32921;53.256;8.198;2023-04-15T10:09:34;8.50;;;3.30;;
47161;SDS011;32921;53.256;8.198;2023-04-15T10:12:00;9.60;;;3.83;;
47161;SDS011;32921;53.256;8.198;2023-04-15T10:14:28;9.50;;;3.75;;
47161;SDS011;32921;53.256;8.198;2023-04-15T10:16:58;7.32;;;3.80;;
47161;SDS011;32921;53.256;8.198;2023-04-15T10:19:26;7.03;;;3.40;;
47161;SDS011;32921;53.256;8.198;2023-04-15T10:22:00;8.15;;;3.08;;
47161;SDS011;32921;53.256;8.198;2023-04-15T10:24:26;7.80;;;3.20;;
47161;SDS011;32921;53.256;8.198;2023-04-15T10:26:54;11.52;;;3.38;;
47161;SDS011;32921;53.256;8.198;2023-04-15T10:29:21;10.05;;;3.58;;
47161;SDS011;32921;53.256;8.198;2023-04-15T10:31:49;9.48;;;3.25;;
47161;SDS011;32921;53.256;8.198;2023-04-15T10:34:16;9.27;;;3.63;;
47161;SDS011;32921;53.256;8.198;2023-04-15T10:36:43;9.57;;;3.45;;
47161;SDS011;32921;53.256;8.198;2023-04-15T10:42:17;8.23;;;4.20;;
47161;SDS011;32921;53.256;8.198;2023-04-15T10:44:50;6.28;;;2.75;;
47161;SDS011;32921;53.256;8.198;2023-04-15T10:47:19;7.45;;;3.80;;
47161;SDS011;32921;53.256;8.198;2023-04-15T10:49:47;7.93;;;3.58;;
47161;SDS011;32921;53.256;8.198;2023-04-15T10:52:15;8.07;;;3.53;;
47161;SDS011;32921;53.256;8.198;2023-04-15T10:54:42;5.65;;;2.33;;
47161;SDS011;32921;53.256;8.198;2023-04-15T10:57:12;7.20;;;3.28;;
47161;SDS011;32921;53.256;8.198;2023-04-15T11:05:21;8.60;;;3.55;;
47161;SDS011;32921;53.256;8.198;2023-04-15T11:08:07;7.38;;;3.50;;
47161;SDS011;32921;53.256;8.198;2023-04-15T11:13:01;14.80;;;4.40;;
47161;SDS011;32921;53.256;8.198;2023-04-15T11:15:29;8.20;;;3.45;;
47161;SDS011;32921;53.256;8.198;2023-04-15T11:17:58;8.55;;;3.67;;
47161;SDS011;32921;53.256;8.198;2023-04-15T11:20:33;8.95;;;3.85;;
47161;SDS011;32921;53.256;8.198;2023-04-15T11:22:59;7.88;;;4.00;;
47161;SDS011;32921;53.256;8.198;2023-04-15T11:25:26;8.15;;;4.43;;
47161;SDS011;32921;53.256;8.198;2023-04-15T11:27:54;9.77;;;3.67;;
47161;SDS011;32921;53.256;8.198;2023-04-15T11:30:22;11.57;;;4.57;;
47161;SDS011;32921;53.256;8.198;2023-04-15T11:32:50;9.73;;;4.43;;
47161;SDS011;32921;53.256;8.198;2023-04-15T11:35:17;12.50;;;4.40;;
47161;SDS011;32921;53.256;8.198;2023-04-15T11:37:43;13.98;;;4.70;;
47161;SDS011;32921;53.256;8.198;2023-04-15T11:40:09;13.77;;;4.88;;
47161;SDS011;32921;53.256;8.198;2023-04-15T11:42:35;13.02;;;4.88;;
47161;SDS011;32921;53.256;8.198;2023-04-15T11:45:11;10.40;;;4.70;;
47161;SDS011;32921;53.256;8.198;2023-04-15T11:47:39;12.45;;;5.38;;
47161;SDS011;32921;53.256;8.198;2023-04-15T11:50:16;11.93;;;5.50;;
47161;SDS011;32921;53.256;8.198;2023-04-15T11:52:58;10.15;;;5.18;;
47161;SDS011;32921;53.256;8.198;2023-04-15T11:55:26;12.30;;;5.05;;
47161;SDS011;32921;53.256;8.198;2023-04-15T12:00:41;14.57;;;6.03;;
47161;SDS011;32921;53.256;8.198;2023-04-15T12:03:16;16.13;;;5.90;;
47161;SDS011;32921;53.256;8.198;2023-04-15T12:06:05;12.57;;;6.22;;
47161;SDS011;32921;53.256;8.198;2023-04-15T12:11:55;14.68;;;7.20;;
47161;SDS011;32921;53.256;8.198;2023-04-15T12:14:28;10.68;;;4.68;;
47161;SDS011;32921;53.256;8.198;2023-04-15T12:17:02;16.25;;;8.07;;
47161;SDS011;32921;53.256;8.198;2023-04-15T12:19:36;15.98;;;8.20;;
47161;SDS011;32921;53.256;8.198;2023-04-15T12:22:16;15.63;;;6.85;;
47161;SDS011;32921;53.256;8.198;2023-04-15T12:24:42;15.13;;;8.27;;
47161;SDS011;32921;53.256;8.198;2023-04-15T12:27:12;23.85;;;9.38;;
47161;SDS011;32921;53.256;8.198;2023-04-15T12:29:39;19.50;;;9.45;;
47161;SDS011;32921;53.256;8.198;2023-04-15T12:37:04;25.08;;;11.15;;
47161;SDS011;32921;53.256;8.198;2023-04-15T12:39:34;23.88;;;11.18;;
47161;SDS011;32921;53.256;8.198;2023-04-15T12:42:02;41.63;;;13.75;;
47161;SDS011;32921;53.256;8.198;2023-04-15T12:44:28;29.90;;;13.15;;
47161;SDS011;32921;53.256;8.198;2023-04-15T12:46:54;36.78;;;12.45;;
47161;SDS011;32921;53.256;8.198;2023-04-15T12:49:20;32.67;;;13.90;;
47161;SDS011;32921;53.256;8.198;2023-04-15T12:51:50;29.13;;;12.50;;
47161;SDS011;32921;53.256;8.198;2023-04-15T12:54:17;35.80;;;14.10;;
47161;SDS011;32921;53.256;8.198;2023-04-15T12:56:43;36.35;;;13.80;;
47161;SDS011;32921;53.256;8.198;2023-04-15T12:59:10;44.13;;;16.55;;
47161;SDS011;32921;53.256;8.198;2023-04-15T13:01:37;37.97;;;15.15;;
47161;SDS011;32921;53.256;8.198;2023-04-15T13:04:03;45.00;;;16.52;;
47161;SDS011;32921;53.256;8.198;2023-04-15T13:06:29;48.97;;;17.45;;
47161;SDS011;32921;53.256;8.198;2023-04-15T13:08:57;44.78;;;17.33;;
47161;SDS011;32921;53.256;8.198;2023-04-15T13:11:23;38.60;;;14.13;;
47161;SDS011;32921;53.256;8.198;2023-04-15T13:13:49;54.15;;;17.45;;
47161;SDS011;32921;53.256;8.198;2023-04-15T13:16:16;45.30;;;18.02;;
47161;SDS011;32921;53.256;8.198;2023-04-15T13:18:42;56.47;;;19.90;;
47161;SDS011;32921;53.256;8.198;2023-04-15T13:21:07;58.85;;;20.20;;
47161;SDS011;32921;53.256;8.198;2023-04-15T13:23:34;41.78;;;14.27;;
47161;SDS011;32921;53.256;8.198;2023-04-15T13:26:00;52.30;;;18.25;;
47161;SDS011;32921;53.256;8.198;2023-04-15T13:28:25;55.13;;;19.20;;
47161;SDS011;32921;53.256;8.198;2023-04-15T13:30:51;59.45;;;20.52;;
47161;SDS011;32921;53.256;8.198;2023-04-15T13:33:17;66.38;;;21.10;;
47161;SDS011;32921;53.256;8.198;2023-04-15T13:35:42;59.05;;;20.23;;
47161;SDS011;32921;53.256;8.198;2023-04-15T13:38:08;72.50;;;21.33;;
47161;SDS011;32921;53.256;8.198;2023-04-15T13:40:33;61.20;;;20.48;;
47161;SDS011;32921;53.256;8.198;2023-04-15T13:42:59;74.47;;;23.92;;
47161;SDS011;32921;53.256;8.198;2023-04-15T13:45:26;71.20;;;22.65;;
47161;SDS011;32921;53.256;8.198;2023-04-15T13:47:51;73.60;;;22.77;;
47161;SDS011;32921;53.256;8.198;2023-04-15T13:50:17;80.03;;;26.83;;
47161;SDS011;32921;53.256;8.198;2023-04-15T13:52:43;70.75;;;22.52;;
47161;SDS011;32921;53.256;8.198;2023-04-15T13:55:08;92.10;;;26.92;;
47161;SDS011;32921;53.256;8.198;2023-04-15T13:57:34;87.63;;;26.52;;
47161;SDS011;32921;53.256;8.198;2023-04-15T14:00:00;80.07;;;26.40;;
47161;SDS011;32921;53.256;8.198;2023-04-15T14:02:27;87.03;;;28.65;;
47161;SDS011;32921;53.256;8.198;2023-04-15T14:04:53;82.38;;;28.00;;
47161;SDS011;32921;53.256;8.198;2023-04-15T14:07:18;99.20;;;31.42;;
47161;SDS011;32921;53.256;8.198;2023-04-15T14:09:44;94.00;;;31.63;;
47161;SDS011;32921;53.256;8.198;2023-04-15T14:12:10;92.53;;;33.03;;
47161;SDS011;32921;53.256;8.198;2023-04-15T14:14:36;90.85;;;32.05;;
47161;SDS011;32921;53.256;8.198;2023-04-15T14:17:02;92.85;;;32.08;;
47161;SDS011;32921;53.256;8.198;2023-04-15T14:19:29;84.88;;;31.15;;
47161;SDS011;32921;53.256;8.198;2023-04-15T14:21:55;85.43;;;30.25;;
47161;SDS011;32921;53.256;8.198;2023-04-15T14:24:21;81.25;;;32.97;;
47161;SDS011;32921;53.256;8.198;2023-04-15T14:26:46;73.85;;;29.17;;
47161;SDS011;32921;53.256;8.198;2023-04-15T14:29:12;64.47;;;31.20;;
47161;SDS011;32921;53.256;8.198;2023-04-15T14:31:37;65.63;;;28.20;;
47161;SDS011;32921;53.256;8.198;2023-04-15T14:34:03;56.15;;;29.42;;
47161;SDS011;32921;53.256;8.198;2023-04-15T14:36:29;52.90;;;24.88;;
47161;SDS011;32921;53.256;8.198;2023-04-15T14:38:55;48.55;;;24.75;;
47161;SDS011;32921;53.256;8.198;2023-04-15T14:41:21;49.95;;;26.45;;
47161;SDS011;32921;53.256;8.198;2023-04-15T14:43:47;45.97;;;25.42;;
47161;SDS011;32921;53.256;8.198;2023-04-15T14:46:13;47.80;;;27.42;;
47161;SDS011;32921;53.256;8.198;2023-04-15T14:48:39;49.95;;;26.77;;
47161;SDS011;32921;53.256;8.198;2023-04-15T14:51:05;48.42;;;25.70;;